Terminal Aerodrome Forecast
Issued by NWS Mobile, AL

Home | Current Version | Previous Version | Text Only | Print | Product List | Glossary On
Versions: 1 2 3 4 5 6 7 8 9 10 11 12 13 14 15 16 17 18 19 20 21 22 23 24 25 26 27 28
000
FTUS44 KMOB 311142
TAFPNS
TAF
KPNS 311142Z 3112/0112 35006KT P6SM FEW150 BKN230
     FM311700 12007KT P6SM VCTS SCT040CB BKN250
      TEMPO 3118/3122 VRB15G25KT 2SM TSRA OVC030CB
     FM010300 04005KT P6SM SCT040 SCT250=

USA.gov is the U.S. government's official web portal to all federal, state and local government web resources and services.